Terminal Aerodrome Forecast
Issued by NWS

Home | Current Version | Previous Version | Text Only | Print | Product List | Glossary On
Versions: 1 2 3 4 5 6 7 8 9 10 11 12 13 14 15 16 17 18 19 20 21 22 23 24 25 26 27 28
000
FTUS43 KDLH 291400 AAA
TAFHYR
TAF AMD
KHYR 291424Z 2914/3012 VRB03KT P6SM OVC022
     FM291900 28006KT P6SM BKN025 OVC040
      TEMPO 2922/3002 SCT025 BKN040
     FM300400 VRB03KT P6SM BKN015
     FM301000 VRB03KT P6SM VCSH BKN020=

USA.gov is the U.S. government's official web portal to all federal, state and local government web resources and services.